Knoxville, Tennessee
Current Conditions -  °F | °C
As of 2:53 AM on Tuesday 27 Jan 2015 (Local Time) from KTYS Reporting Station
Light Snow Light Snow  
Wind Chill: 26°   Ceiling: 3000
Heat Index: 31°   Visibility: 7mi
Dew Point: 29°   Wind: 5mph
Humidity: 92%   Direction: 220°SW
Pressure: 29.89"   Gusts: NA
Location:  35.96°N, 83.92°W
Report Text: KTYS 270753Z 22004KT 7SM -SN FEW005 OVC030 M01/M02 A2989 RMK AO2 SLP128 P0000 T10061017
Loading
Personal Weather Stations






























Interactive Weather Map New forecast layout! Learn more

10-Day Weather Forecast

Advertisements
Track Severe Weather on mobile